Cottrellville Township, Michigan
Current Conditions -  °F | °C
As of 12:16 PM on Friday 24 Oct 2014 (Local Time) from KPHN Reporting Station
Broken Clouds Broken Clouds  
Wind Chill: 55°   Ceiling: 4900
Heat Index: 55°   Visibility: 10mi
Dew Point: 45°   Wind: 7mph
Humidity: 67%   Direction: 200°SSW
Pressure: 30.04"   Gusts: NA
Location:  42.6968°N, 82.5536°W
Report Text: KPHN 241616Z AUTO 20006KT 10SM BKN049 13/07 A3004 RMK AO2
Loading
Personal Weather Stations






























Interactive Weather Map
Tropical Storm Tracking
New forecast layout! Learn more

10-Day Weather Forecast

Advertisements
Track Severe Weather on mobile